Berea, Nebraska
Current Conditions -  °F | °C
As of 1:53 AM on Thursday 27 Nov 2014 (Local Time) from KAIA Reporting Station
Scattered Clouds Scattered Clouds  
Wind Chill: 16°   Ceiling: Unl
Heat Index: 24°   Visibility: 10mi
Dew Point: 21°   Wind: 7mph
Humidity: 88%   Direction: 200°SSW
Pressure: 30.21"   Gusts: NA
Location:  42.1783°N, 103.14°W
Report Text: KAIA 270853Z AUTO 20006KT 10SM SCT100 M04/M06 A3021 RMK AO2 SLP264 T10441061 58010
Loading
Personal Weather Stations






























Interactive Weather Map New forecast layout! Learn more

10-Day Weather Forecast

Advertisements
Track Severe Weather on mobile